sensor_id;sensor_type;location;lat;lon;timestamp;P1;durP1;ratioP1;P2;durP2;ratioP2
81508;SDS011;70930;52.412;13.554;2023-10-08T00:00:46;3.05;;;1.45;;
81508;SDS011;70930;52.412;13.554;2023-10-08T00:03:38;3.15;;;1.73;;
81508;SDS011;70930;52.412;13.554;2023-10-08T00:09:13;4.30;;;2.22;;
81508;SDS011;70930;52.412;13.554;2023-10-08T00:11:59;8.20;;;3.00;;
81508;SDS011;70930;52.412;13.554;2023-10-08T00:14:47;6.82;;;3.65;;
81508;SDS011;70930;52.412;13.554;2023-10-08T00:17:38;6.72;;;4.00;;
81508;SDS011;70930;52.412;13.554;2023-10-08T00:20:23;12.38;;;4.60;;
81508;SDS011;70930;52.412;13.554;2023-10-08T00:23:20;6.90;;;3.00;;
81508;SDS011;70930;52.412;13.554;2023-10-08T00:26:09;7.28;;;3.50;;
81508;SDS011;70930;52.412;13.554;2023-10-08T00:28:55;6.32;;;2.85;;
81508;SDS011;70930;52.412;13.554;2023-10-08T00:31:44;8.18;;;3.45;;
81508;SDS011;70930;52.412;13.554;2023-10-08T00:34:30;4.78;;;2.80;;
81508;SDS011;70930;52.412;13.554;2023-10-08T00:37:16;6.65;;;2.42;;
81508;SDS011;70930;52.412;13.554;2023-10-08T00:40:01;5.00;;;2.35;;
81508;SDS011;70930;52.412;13.554;2023-10-08T00:42:50;3.97;;;2.30;;
81508;SDS011;70930;52.412;13.554;2023-10-08T00:45:41;5.13;;;2.10;;
81508;SDS011;70930;52.412;13.554;2023-10-08T00:48:29;4.53;;;1.90;;
81508;SDS011;70930;52.412;13.554;2023-10-08T00:51:21;3.97;;;1.80;;
81508;SDS011;70930;52.412;13.554;2023-10-08T00:54:07;7.80;;;1.85;;
81508;SDS011;70930;52.412;13.554;2023-10-08T00:56:55;6.00;;;1.67;;
81508;SDS011;70930;52.412;13.554;2023-10-08T00:59:43;6.38;;;1.63;;
81508;SDS011;70930;52.412;13.554;2023-10-08T01:02:35;7.53;;;1.77;;
81508;SDS011;70930;52.412;13.554;2023-10-08T01:05:40;5.78;;;1.95;;
81508;SDS011;70930;52.412;13.554;2023-10-08T01:08:32;5.72;;;2.20;;
81508;SDS011;70930;52.412;13.554;2023-10-08T01:11:22;5.88;;;2.30;;
81508;SDS011;70930;52.412;13.554;2023-10-08T01:14:28;5.10;;;1.75;;
81508;SDS011;70930;52.412;13.554;2023-10-08T01:17:17;6.18;;;1.73;;
81508;SDS011;70930;52.412;13.554;2023-10-08T01:20:04;6.82;;;2.05;;
81508;SDS011;70930;52.412;13.554;2023-10-08T01:22:54;7.25;;;2.25;;
81508;SDS011;70930;52.412;13.554;2023-10-08T01:25:45;6.22;;;2.10;;
81508;SDS011;70930;52.412;13.554;2023-10-08T01:28:38;7.63;;;1.83;;
81508;SDS011;70930;52.412;13.554;2023-10-08T01:31:23;5.15;;;1.50;;
81508;SDS011;70930;52.412;13.554;2023-10-08T01:34:08;5.78;;;1.65;;
81508;SDS011;70930;52.412;13.554;2023-10-08T01:37:00;8.48;;;1.65;;
81508;SDS011;70930;52.412;13.554;2023-10-08T01:39:50;5.25;;;2.10;;
81508;SDS011;70930;52.412;13.554;2023-10-08T01:42:35;8.52;;;2.10;;
81508;SDS011;70930;52.412;13.554;2023-10-08T01:45:23;5.88;;;1.85;;
81508;SDS011;70930;52.412;13.554;2023-10-08T01:48:10;6.97;;;1.98;;
81508;SDS011;70930;52.412;13.554;2023-10-08T01:50:55;5.13;;;1.90;;
81508;SDS011;70930;52.412;13.554;2023-10-08T01:53:43;7.15;;;1.83;;
81508;SDS011;70930;52.412;13.554;2023-10-08T01:56:29;6.35;;;2.00;;
81508;SDS011;70930;52.412;13.554;2023-10-08T01:59:15;4.25;;;1.65;;
81508;SDS011;70930;52.412;13.554;2023-10-08T02:02:00;4.55;;;1.80;;
81508;SDS011;70930;52.412;13.554;2023-10-08T02:04:46;6.07;;;2.05;;
81508;SDS011;70930;52.412;13.554;2023-10-08T02:07:32;6.82;;;1.45;;
81508;SDS011;70930;52.412;13.554;2023-10-08T02:10:19;6.15;;;1.98;;
81508;SDS011;70930;52.412;13.554;2023-10-08T02:13:04;8.77;;;2.25;;
81508;SDS011;70930;52.412;13.554;2023-10-08T02:15:50;4.60;;;1.50;;
81508;SDS011;70930;52.412;13.554;2023-10-08T02:18:37;8.98;;;2.10;;
81508;SDS011;70930;52.412;13.554;2023-10-08T02:21:22;7.82;;;1.80;;
81508;SDS011;70930;52.412;13.554;2023-10-08T02:24:08;9.00;;;1.70;;
81508;SDS011;70930;52.412;13.554;2023-10-08T02:29:42;6.32;;;2.00;;
81508;SDS011;70930;52.412;13.554;2023-10-08T02:32:28;5.60;;;1.50;;
81508;SDS011;70930;52.412;13.554;2023-10-08T02:35:13;7.45;;;1.80;;
81508;SDS011;70930;52.412;13.554;2023-10-08T02:37:59;4.03;;;1.30;;
81508;SDS011;70930;52.412;13.554;2023-10-08T02:40:44;6.03;;;1.73;;
81508;SDS011;70930;52.412;13.554;2023-10-08T02:43:32;9.57;;;1.75;;
81508;SDS011;70930;52.412;13.554;2023-10-08T02:46:27;9.13;;;2.33;;
81508;SDS011;70930;52.412;13.554;2023-10-08T02:49:15;7.38;;;2.35;;
81508;SDS011;70930;52.412;13.554;2023-10-08T02:52:09;8.52;;;2.38;;
81508;SDS011;70930;52.412;13.554;2023-10-08T02:54:55;6.43;;;2.00;;
81508;SDS011;70930;52.412;13.554;2023-10-08T02:57:40;5.97;;;2.17;;
81508;SDS011;70930;52.412;13.554;2023-10-08T03:00:29;5.00;;;2.30;;
81508;SDS011;70930;52.412;13.554;2023-10-08T03:03:18;7.15;;;2.38;;
81508;SDS011;70930;52.412;13.554;2023-10-08T03:06:04;8.20;;;2.40;;
81508;SDS011;70930;52.412;13.554;2023-10-08T03:08:49;8.32;;;2.38;;
81508;SDS011;70930;52.412;13.554;2023-10-08T03:11:36;12.50;;;2.90;;
81508;SDS011;70930;52.412;13.554;2023-10-08T03:14:22;13.50;;;3.85;;
81508;SDS011;70930;52.412;13.554;2023-10-08T03:17:11;10.00;;;2.38;;
81508;SDS011;70930;52.412;13.554;2023-10-08T03:19:56;8.35;;;2.08;;
81508;SDS011;70930;52.412;13.554;2023-10-08T03:23:02;8.88;;;2.83;;
81508;SDS011;70930;52.412;13.554;2023-10-08T03:28:43;5.00;;;2.20;;
81508;SDS011;70930;52.412;13.554;2023-10-08T03:31:29;6.55;;;2.30;;
81508;SDS011;70930;52.412;13.554;2023-10-08T03:37:22;7.72;;;2.50;;
81508;SDS011;70930;52.412;13.554;2023-10-08T03:40:26;13.80;;;3.88;;
81508;SDS011;70930;52.412;13.554;2023-10-08T03:43:28;11.15;;;3.20;;
81508;SDS011;70930;52.412;13.554;2023-10-08T03:46:20;10.85;;;2.63;;
81508;SDS011;70930;52.412;13.554;2023-10-08T03:49:08;8.45;;;2.40;;
81508;SDS011;70930;52.412;13.554;2023-10-08T03:52:10;12.88;;;2.92;;
81508;SDS011;70930;52.412;13.554;2023-10-08T03:54:55;9.93;;;3.20;;
81508;SDS011;70930;52.412;13.554;2023-10-08T03:57:50;5.55;;;2.30;;
81508;SDS011;70930;52.412;13.554;2023-10-08T04:00:45;8.02;;;2.60;;
81508;SDS011;70930;52.412;13.554;2023-10-08T04:03:31;6.28;;;2.53;;
81508;SDS011;70930;52.412;13.554;2023-10-08T04:06:36;7.18;;;2.42;;
81508;SDS011;70930;52.412;13.554;2023-10-08T04:09:32;10.25;;;3.03;;
81508;SDS011;70930;52.412;13.554;2023-10-08T04:12:19;11.95;;;3.42;;
81508;SDS011;70930;52.412;13.554;2023-10-08T04:15:04;7.10;;;2.50;;
81508;SDS011;70930;52.412;13.554;2023-10-08T04:17:52;7.50;;;2.92;;
81508;SDS011;70930;52.412;13.554;2023-10-08T04:20:38;5.43;;;2.45;;
81508;SDS011;70930;52.412;13.554;2023-10-08T04:23:23;14.82;;;3.40;;
81508;SDS011;70930;52.412;13.554;2023-10-08T04:26:09;8.18;;;2.22;;
81508;SDS011;70930;52.412;13.554;2023-10-08T04:28:54;9.68;;;2.60;;
81508;SDS011;70930;52.412;13.554;2023-10-08T04:31:47;6.38;;;2.70;;
81508;SDS011;70930;52.412;13.554;2023-10-08T04:34:39;7.82;;;2.42;;
81508;SDS011;70930;52.412;13.554;2023-10-08T04:37:30;13.43;;;3.08;;
81508;SDS011;70930;52.412;13.554;2023-10-08T04:40:18;7.95;;;2.38;;
81508;SDS011;70930;52.412;13.554;2023-10-08T04:43:08;7.82;;;3.10;;
81508;SDS011;70930;52.412;13.554;2023-10-08T04:45:59;6.88;;;2.30;;
81508;SDS011;70930;52.412;13.554;2023-10-08T04:48:49;8.25;;;2.92;;
81508;SDS011;70930;52.412;13.554;2023-10-08T04:51:34;7.22;;;3.17;;
81508;SDS011;70930;52.412;13.554;2023-10-08T04:54:29;9.18;;;2.90;;
81508;SDS011;70930;52.412;13.554;2023-10-08T04:57:15;8.30;;;2.97;;
81508;SDS011;70930;52.412;13.554;2023-10-08T05:00:00;10.05;;;2.88;;
81508;SDS011;70930;52.412;13.554;2023-10-08T05:02:46;6.80;;;2.40;;
81508;SDS011;70930;52.412;13.554;2023-10-08T05:05:35;7.10;;;2.60;;
81508;SDS011;70930;52.412;13.554;2023-10-08T05:08:39;8.27;;;2.78;;
81508;SDS011;70930;52.412;13.554;2023-10-08T05:11:43;4.10;;;2.17;;
81508;SDS011;70930;52.412;13.554;2023-10-08T05:14:51;9.65;;;2.47;;
81508;SDS011;70930;52.412;13.554;2023-10-08T05:17:55;5.88;;;2.83;;
81508;SDS011;70930;52.412;13.554;2023-10-08T05:20:54;5.07;;;2.35;;
81508;SDS011;70930;52.412;13.554;2023-10-08T05:23:59;5.82;;;2.35;;
81508;SDS011;70930;52.412;13.554;2023-10-08T05:26:54;5.03;;;2.20;;
81508;SDS011;70930;52.412;13.554;2023-10-08T05:30:01;8.80;;;3.10;;
81508;SDS011;70930;52.412;13.554;2023-10-08T05:33:11;5.43;;;2.33;;
81508;SDS011;70930;52.412;13.554;2023-10-08T05:36:02;9.45;;;3.13;;
81508;SDS011;70930;52.412;13.554;2023-10-08T05:38:54;7.72;;;2.65;;
81508;SDS011;70930;52.412;13.554;2023-10-08T05:41:46;8.55;;;3.05;;
81508;SDS011;70930;52.412;13.554;2023-10-08T05:44:43;5.55;;;2.85;;
81508;SDS011;70930;52.412;13.554;2023-10-08T05:47:49;6.07;;;2.80;;
81508;SDS011;70930;52.412;13.554;2023-10-08T05:50:53;13.93;;;5.35;;
81508;SDS011;70930;52.412;13.554;2023-10-08T05:53:57;7.97;;;4.10;;
81508;SDS011;70930;52.412;13.554;2023-10-08T05:56:43;7.55;;;3.33;;
81508;SDS011;70930;52.412;13.554;2023-10-08T05:59:48;6.50;;;3.58;;
81508;SDS011;70930;52.412;13.554;2023-10-08T06:02:40;10.05;;;3.00;;
81508;SDS011;70930;52.412;13.554;2023-10-08T06:05:30;9.10;;;3.97;;
81508;SDS011;70930;52.412;13.554;2023-10-08T06:08:18;9.40;;;4.15;;
81508;SDS011;70930;52.412;13.554;2023-10-08T06:11:23;8.35;;;4.25;;
81508;SDS011;70930;52.412;13.554;2023-10-08T06:14:29;7.18;;;3.92;;
81508;SDS011;70930;52.412;13.554;2023-10-08T06:17:35;6.80;;;2.72;;
81508;SDS011;70930;52.412;13.554;2023-10-08T06:20:41;9.82;;;3.13;;
81508;SDS011;70930;52.412;13.554;2023-10-08T06:23:30;7.38;;;2.72;;
81508;SDS011;70930;52.412;13.554;2023-10-08T06:26:17;10.10;;;2.60;;
81508;SDS011;70930;52.412;13.554;2023-10-08T06:29:06;11.20;;;2.53;;
81508;SDS011;70930;52.412;13.554;2023-10-08T06:32:03;10.13;;;2.75;;
81508;SDS011;70930;52.412;13.554;2023-10-08T06:34:49;5.63;;;2.15;;
81508;SDS011;70930;52.412;13.554;2023-10-08T06:37:35;8.88;;;2.30;;
81508;SDS011;70930;52.412;13.554;2023-10-08T06:40:21;8.73;;;2.25;;
81508;SDS011;70930;52.412;13.554;2023-10-08T06:43:28;8.57;;;2.20;;
81508;SDS011;70930;52.412;13.554;2023-10-08T06:46:14;6.05;;;1.55;;
81508;SDS011;70930;52.412;13.554;2023-10-08T06:49:07;9.40;;;1.90;;
81508;SDS011;70930;52.412;13.554;2023-10-08T06:51:56;7.90;;;2.40;;
81508;SDS011;70930;52.412;13.554;2023-10-08T06:54:42;5.68;;;1.50;;
81508;SDS011;70930;52.412;13.554;2023-10-08T06:57:27;5.88;;;1.65;;
81508;SDS011;70930;52.412;13.554;2023-10-08T07:00:13;4.72;;;1.40;;
81508;SDS011;70930;52.412;13.554;2023-10-08T07:03:18;3.97;;;1.55;;
81508;SDS011;70930;52.412;13.554;2023-10-08T07:06:05;5.78;;;1.65;;
81508;SDS011;70930;52.412;13.554;2023-10-08T07:09:01;5.85;;;1.48;;
81508;SDS011;70930;52.412;13.554;2023-10-08T07:11:50;4.22;;;1.42;;
81508;SDS011;70930;52.412;13.554;2023-10-08T07:14:39;3.60;;;1.20;;
81508;SDS011;70930;52.412;13.554;2023-10-08T07:17:26;5.10;;;1.25;;
81508;SDS011;70930;52.412;13.554;2023-10-08T07:20:25;3.70;;;1.13;;
81508;SDS011;70930;52.412;13.554;2023-10-08T07:23:11;5.10;;;2.03;;
81508;SDS011;70930;52.412;13.554;2023-10-08T07:26:09;4.55;;;1.10;;
81508;SDS011;70930;52.412;13.554;2023-10-08T07:29:03;4.60;;;1.33;;
81508;SDS011;70930;52.412;13.554;2023-10-08T07:31:58;4.93;;;1.15;;
81508;SDS011;70930;52.412;13.554;2023-10-08T07:34:54;3.47;;;1.40;;
81508;SDS011;70930;52.412;13.554;2023-10-08T07:37:51;5.85;;;1.35;;
81508;SDS011;70930;52.412;13.554;2023-10-08T07:40:39;4.57;;;1.05;;
81508;SDS011;70930;52.412;13.554;2023-10-08T07:43:24;3.65;;;1.35;;
81508;SDS011;70930;52.412;13.554;2023-10-08T07:46:10;2.63;;;1.35;;
81508;SDS011;70930;52.412;13.554;2023-10-08T07:48:55;3.30;;;1.08;;
81508;SDS011;70930;52.412;13.554;2023-10-08T07:51:43;3.05;;;1.00;;
81508;SDS011;70930;52.412;13.554;2023-10-08T07:54:37;2.75;;;1.08;;
81508;SDS011;70930;52.412;13.554;2023-10-08T07:57:24;5.40;;;1.38;;
81508;SDS011;70930;52.412;13.554;2023-10-08T08:00:12;4.50;;;1.15;;
81508;SDS011;70930;52.412;13.554;2023-10-08T08:03:07;5.05;;;1.52;;
81508;SDS011;70930;52.412;13.554;2023-10-08T08:05:53;2.13;;;1.25;;
81508;SDS011;70930;52.412;13.554;2023-10-08T08:08:39;2.75;;;1.20;;
81508;SDS011;70930;52.412;13.554;2023-10-08T08:11:24;4.70;;;1.25;;
81508;SDS011;70930;52.412;13.554;2023-10-08T08:14:11;4.15;;;1.30;;
81508;SDS011;70930;52.412;13.554;2023-10-08T08:17:01;3.25;;;1.10;;
81508;SDS011;70930;52.412;13.554;2023-10-08T08:19:58;2.80;;;1.00;;
81508;SDS011;70930;52.412;13.554;2023-10-08T08:22:44;2.33;;;0.98;;
81508;SDS011;70930;52.412;13.554;2023-10-08T08:25:39;2.60;;;1.42;;
81508;SDS011;70930;52.412;13.554;2023-10-08T08:29:00;4.18;;;1.75;;
81508;SDS011;70930;52.412;13.554;2023-10-08T08:31:46;3.83;;;1.25;;
81508;SDS011;70930;52.412;13.554;2023-10-08T08:34:32;2.33;;;1.10;;
81508;SDS011;70930;52.412;13.554;2023-10-08T08:37:18;4.10;;;1.27;;
81508;SDS011;70930;52.412;13.554;2023-10-08T08:40:04;3.47;;;1.10;;
81508;SDS011;70930;52.412;13.554;2023-10-08T08:43:06;2.33;;;1.20;;
81508;SDS011;70930;52.412;13.554;2023-10-08T08:45:52;3.70;;;0.82;;
81508;SDS011;70930;52.412;13.554;2023-10-08T08:48:42;2.33;;;1.10;;
81508;SDS011;70930;52.412;13.554;2023-10-08T08:51:33;2.92;;;0.63;;
81508;SDS011;70930;52.412;13.554;2023-10-08T08:54:20;5.85;;;1.10;;
81508;SDS011;70930;52.412;13.554;2023-10-08T08:57:06;3.33;;;0.70;;
81508;SDS011;70930;52.412;13.554;2023-10-08T08:59:58;2.92;;;0.95;;
81508;SDS011;70930;52.412;13.554;2023-10-08T09:02:45;3.03;;;0.95;;
81508;SDS011;70930;52.412;13.554;2023-10-08T09:05:32;2.97;;;1.08;;
81508;SDS011;70930;52.412;13.554;2023-10-08T09:08:19;1.95;;;0.93;;
81508;SDS011;70930;52.412;13.554;2023-10-08T09:11:08;2.40;;;0.98;;
81508;SDS011;70930;52.412;13.554;2023-10-08T09:14:01;3.53;;;0.80;;
81508;SDS011;70930;52.412;13.554;2023-10-08T09:16:48;1.98;;;0.80;;
81508;SDS011;70930;52.412;13.554;2023-10-08T09:19:38;2.88;;;0.85;;
81508;SDS011;70930;52.412;13.554;2023-10-08T09:22:24;2.25;;;0.77;;
81508;SDS011;70930;52.412;13.554;2023-10-08T09:25:10;1.58;;;0.80;;
81508;SDS011;70930;52.412;13.554;2023-10-08T09:27:59;2.47;;;0.93;;
81508;SDS011;70930;52.412;13.554;2023-10-08T09:30:46;3.08;;;1.00;;
81508;SDS011;70930;52.412;13.554;2023-10-08T09:33:33;2.08;;;0.95;;
81508;SDS011;70930;52.412;13.554;2023-10-08T09:36:18;3.92;;;1.27;;
81508;SDS011;70930;52.412;13.554;2023-10-08T09:39:05;3.55;;;1.08;;
81508;SDS011;70930;52.412;13.554;2023-10-08T09:41:53;2.22;;;1.00;;
81508;SDS011;70930;52.412;13.554;2023-10-08T09:44:39;2.65;;;0.75;;
81508;SDS011;70930;52.412;13.554;2023-10-08T09:47:24;2.72;;;0.80;;
81508;SDS011;70930;52.412;13.554;2023-10-08T09:50:14;2.80;;;0.82;;
81508;SDS011;70930;52.412;13.554;2023-10-08T09:53:01;1.63;;;0.70;;
81508;SDS011;70930;52.412;13.554;2023-10-08T09:58:41;0.60;;;0.57;;
81508;SDS011;70930;52.412;13.554;2023-10-08T10:01:28;0.90;;;0.55;;
81508;SDS011;70930;52.412;13.554;2023-10-08T10:04:23;1.30;;;0.50;;
81508;SDS011;70930;52.412;13.554;2023-10-08T10:07:10;2.25;;;0.80;;
81508;SDS011;70930;52.412;13.554;2023-10-08T10:09:57;1.30;;;0.60;;
81508;SDS011;70930;52.412;13.554;2023-10-08T10:12:43;1.90;;;0.82;;
81508;SDS011;70930;52.412;13.554;2023-10-08T10:15:31;2.88;;;0.90;;
81508;SDS011;70930;52.412;13.554;2023-10-08T10:24:00;2.67;;;0.82;;
81508;SDS011;70930;52.412;13.554;2023-10-08T10:26:45;1.63;;;0.60;;
81508;SDS011;70930;52.412;13.554;2023-10-08T10:29:35;4.28;;;0.60;;
81508;SDS011;70930;52.412;13.554;2023-10-08T10:32:20;1.08;;;0.50;;
81508;SDS011;70930;52.412;13.554;2023-10-08T10:35:06;1.75;;;0.80;;
81508;SDS011;70930;52.412;13.554;2023-10-08T10:37:56;1.60;;;0.80;;
81508;SDS011;70930;52.412;13.554;2023-10-08T10:40:48;1.33;;;0.60;;
81508;SDS011;70930;52.412;13.554;2023-10-08T10:43:43;2.53;;;0.60;;
81508;SDS011;70930;52.412;13.554;2023-10-08T10:46:37;1.88;;;0.47;;
81508;SDS011;70930;52.412;13.554;2023-10-08T10:49:26;1.33;;;0.82;;
81508;SDS011;70930;52.412;13.554;2023-10-08T10:52:28;2.58;;;0.82;;
81508;SDS011;70930;52.412;13.554;2023-10-08T10:55:17;1.27;;;0.70;;
81508;SDS011;70930;52.412;13.554;2023-10-08T10:58:06;1.33;;;0.60;;
81508;SDS011;70930;52.412;13.554;2023-10-08T11:03:50;1.67;;;0.63;;
81508;SDS011;70930;52.412;13.554;2023-10-08T11:06:36;2.53;;;0.50;;
81508;SDS011;70930;52.412;13.554;2023-10-08T11:09:23;2.08;;;0.88;;
81508;SDS011;70930;52.412;13.554;2023-10-08T11:12:30;1.92;;;0.60;;
81508;SDS011;70930;52.412;13.554;2023-10-08T11:15:28;1.23;;;0.65;;
81508;SDS011;70930;52.412;13.554;2023-10-08T11:18:42;1.13;;;0.60;;
81508;SDS011;70930;52.412;13.554;2023-10-08T11:21:28;1.75;;;0.60;;
81508;SDS011;70930;52.412;13.554;2023-10-08T11:24:31;1.33;;;0.68;;
81508;SDS011;70930;52.412;13.554;2023-10-08T11:27:22;1.00;;;0.55;;
81508;SDS011;70930;52.412;13.554;2023-10-08T11:30:14;1.33;;;0.60;;
81508;SDS011;70930;52.412;13.554;2023-10-08T11:33:02;1.95;;;0.70;;
81508;SDS011;70930;52.412;13.554;2023-10-08T11:36:09;1.95;;;0.80;;
81508;SDS011;70930;52.412;13.554;2023-10-08T11:39:10;1.88;;;0.80;;
81508;SDS011;70930;52.412;13.554;2023-10-08T11:42:06;0.82;;;0.70;;
81508;SDS011;70930;52.412;13.554;2023-10-08T11:45:11;1.17;;;0.68;;
81508;SDS011;70930;52.412;13.554;2023-10-08T11:48:11;1.75;;;1.00;;
81508;SDS011;70930;52.412;13.554;2023-10-08T11:50:58;2.17;;;0.73;;
81508;SDS011;70930;52.412;13.554;2023-10-08T11:53:46;1.90;;;1.15;;
81508;SDS011;70930;52.412;13.554;2023-10-08T11:56:32;1.77;;;0.85;;
81508;SDS011;70930;52.412;13.554;2023-10-08T11:59:18;1.02;;;0.70;;
81508;SDS011;70930;52.412;13.554;2023-10-08T12:02:04;2.65;;;0.70;;
81508;SDS011;70930;52.412;13.554;2023-10-08T12:04:50;1.45;;;0.60;;
81508;SDS011;70930;52.412;13.554;2023-10-08T12:07:36;1.63;;;0.90;;
81508;SDS011;70930;52.412;13.554;2023-10-08T12:10:24;2.33;;;0.80;;
81508;SDS011;70930;52.412;13.554;2023-10-08T12:13:10;2.08;;;0.70;;
81508;SDS011;70930;52.412;13.554;2023-10-08T12:15:55;2.47;;;0.55;;
81508;SDS011;70930;52.412;13.554;2023-10-08T12:18:57;0.93;;;0.65;;
81508;SDS011;70930;52.412;13.554;2023-10-08T12:21:45;1.83;;;0.75;;
81508;SDS011;70930;52.412;13.554;2023-10-08T12:24:34;1.85;;;0.82;;
81508;SDS011;70930;52.412;13.554;2023-10-08T12:27:20;1.20;;;0.60;;
81508;SDS011;70930;52.412;13.554;2023-10-08T12:30:06;1.05;;;0.73;;
81508;SDS011;70930;52.412;13.554;2023-10-08T12:32:56;2.55;;;1.08;;
81508;SDS011;70930;52.412;13.554;2023-10-08T12:35:43;1.02;;;0.70;;
81508;SDS011;70930;52.412;13.554;2023-10-08T12:41:16;1.70;;;0.90;;
81508;SDS011;70930;52.412;13.554;2023-10-08T12:44:04;1.23;;;0.60;;
81508;SDS011;70930;52.412;13.554;2023-10-08T12:46:52;1.20;;;0.77;;
81508;SDS011;70930;52.412;13.554;2023-10-08T12:49:38;2.88;;;0.90;;
81508;SDS011;70930;52.412;13.554;2023-10-08T12:52:24;4.47;;;0.95;;
81508;SDS011;70930;52.412;13.554;2023-10-08T12:55:13;1.75;;;0.90;;
81508;SDS011;70930;52.412;13.554;2023-10-08T12:57:58;6.10;;;1.10;;
81508;SDS011;70930;52.412;13.554;2023-10-08T13:00:54;2.85;;;1.80;;
81508;SDS011;70930;52.412;13.554;2023-10-08T13:03:43;2.10;;;0.77;;
81508;SDS011;70930;52.412;13.554;2023-10-08T13:06:35;1.27;;;0.70;;
81508;SDS011;70930;52.412;13.554;2023-10-08T13:09:24;2.40;;;0.88;;
81508;SDS011;70930;52.412;13.554;2023-10-08T13:12:09;3.10;;;0.70;;
81508;SDS011;70930;52.412;13.554;2023-10-08T13:14:55;2.28;;;0.70;;
81508;SDS011;70930;52.412;13.554;2023-10-08T13:17:40;1.90;;;1.20;;
81508;SDS011;70930;52.412;13.554;2023-10-08T13:20:27;1.88;;;0.70;;
81508;SDS011;70930;52.412;13.554;2023-10-08T13:23:18;1.88;;;0.82;;
81508;SDS011;70930;52.412;13.554;2023-10-08T13:26:05;2.33;;;1.42;;
81508;SDS011;70930;52.412;13.554;2023-10-08T13:28:54;1.80;;;0.82;;
81508;SDS011;70930;52.412;13.554;2023-10-08T13:31:39;1.70;;;0.82;;
81508;SDS011;70930;52.412;13.554;2023-10-08T13:34:25;1.25;;;0.80;;
81508;SDS011;70930;52.412;13.554;2023-10-08T13:37:11;1.75;;;1.10;;
81508;SDS011;70930;52.412;13.554;2023-10-08T13:39:59;1.95;;;0.80;;
81508;SDS011;70930;52.412;13.554;2023-10-08T13:42:44;2.05;;;0.95;;
81508;SDS011;70930;52.412;13.554;2023-10-08T13:45:30;2.50;;;1.15;;
81508;SDS011;70930;52.412;13.554;2023-10-08T13:48:18;2.97;;;0.90;;
81508;SDS011;70930;52.412;13.554;2023-10-08T13:51:04;3.45;;;1.02;;
81508;SDS011;70930;52.412;13.554;2023-10-08T13:53:50;1.50;;;1.00;;
81508;SDS011;70930;52.412;13.554;2023-10-08T13:56:51;4.35;;;0.80;;
81508;SDS011;70930;52.412;13.554;2023-10-08T13:59:36;1.30;;;0.80;;
81508;SDS011;70930;52.412;13.554;2023-10-08T14:02:23;1.83;;;0.85;;
81508;SDS011;70930;52.412;13.554;2023-10-08T14:08:00;2.35;;;0.85;;
81508;SDS011;70930;52.412;13.554;2023-10-08T14:13:33;4.25;;;0.90;;
81508;SDS011;70930;52.412;13.554;2023-10-08T14:16:20;1.88;;;0.90;;
81508;SDS011;70930;52.412;13.554;2023-10-08T14:19:13;3.03;;;1.10;;
81508;SDS011;70930;52.412;13.554;2023-10-08T14:21:59;2.05;;;1.00;;
81508;SDS011;70930;52.412;13.554;2023-10-08T14:24:53;1.90;;;0.90;;
81508;SDS011;70930;52.412;13.554;2023-10-08T14:27:45;1.10;;;0.70;;
81508;SDS011;70930;52.412;13.554;2023-10-08T14:30:37;1.60;;;0.70;;
81508;SDS011;70930;52.412;13.554;2023-10-08T14:33:26;2.50;;;0.80;;
81508;SDS011;70930;52.412;13.554;2023-10-08T14:36:16;1.58;;;0.80;;
81508;SDS011;70930;52.412;13.554;2023-10-08T14:39:20;1.60;;;0.93;;
81508;SDS011;70930;52.412;13.554;2023-10-08T14:42:24;2.40;;;1.10;;
81508;SDS011;70930;52.412;13.554;2023-10-08T14:45:28;1.85;;;1.20;;
81508;SDS011;70930;52.412;13.554;2023-10-08T14:48:20;2.88;;;1.27;;
81508;SDS011;70930;52.412;13.554;2023-10-08T14:51:05;4.18;;;1.23;;
81508;SDS011;70930;52.412;13.554;2023-10-08T14:53:52;2.63;;;1.02;;
81508;SDS011;70930;52.412;13.554;2023-10-08T14:56:37;4.03;;;1.00;;
81508;SDS011;70930;52.412;13.554;2023-10-08T14:59:24;1.88;;;1.17;;
81508;SDS011;70930;52.412;13.554;2023-10-08T15:02:13;3.50;;;1.10;;
81508;SDS011;70930;52.412;13.554;2023-10-08T15:04:58;2.80;;;1.27;;
81508;SDS011;70930;52.412;13.554;2023-10-08T15:07:46;3.13;;;1.30;;
81508;SDS011;70930;52.412;13.554;2023-10-08T15:10:31;1.75;;;1.15;;
81508;SDS011;70930;52.412;13.554;2023-10-08T15:13:18;2.30;;;1.40;;
81508;SDS011;70930;52.412;13.554;2023-10-08T15:16:03;4.05;;;1.10;;
81508;SDS011;70930;52.412;13.554;2023-10-08T15:18:49;2.67;;;1.25;;
81508;SDS011;70930;52.412;13.554;2023-10-08T15:21:36;3.65;;;2.00;;
81508;SDS011;70930;52.412;13.554;2023-10-08T15:24:21;3.00;;;1.77;;
81508;SDS011;70930;52.412;13.554;2023-10-08T15:27:07;2.50;;;1.50;;
81508;SDS011;70930;52.412;13.554;2023-10-08T15:29:55;3.78;;;1.58;;
81508;SDS011;70930;52.412;13.554;2023-10-08T15:32:41;2.25;;;1.50;;
81508;SDS011;70930;52.412;13.554;2023-10-08T15:35:33;1.95;;;1.10;;
81508;SDS011;70930;52.412;13.554;2023-10-08T15:38:19;4.10;;;1.70;;
81508;SDS011;70930;52.412;13.554;2023-10-08T15:41:04;2.55;;;1.20;;
81508;SDS011;70930;52.412;13.554;2023-10-08T15:43:50;4.55;;;2.03;;
81508;SDS011;70930;52.412;13.554;2023-10-08T15:46:36;2.60;;;1.95;;
81508;SDS011;70930;52.412;13.554;2023-10-08T15:49:22;3.00;;;1.60;;
81508;SDS011;70930;52.412;13.554;2023-10-08T15:52:07;3.88;;;1.80;;
81508;SDS011;70930;52.412;13.554;2023-10-08T15:54:53;3.85;;;1.77;;
81508;SDS011;70930;52.412;13.554;2023-10-08T15:57:38;3.30;;;1.80;;
81508;SDS011;70930;52.412;13.554;2023-10-08T16:00:24;3.45;;;1.85;;
81508;SDS011;70930;52.412;13.554;2023-10-08T16:03:09;3.40;;;1.63;;
81508;SDS011;70930;52.412;13.554;2023-10-08T16:05:55;4.20;;;1.70;;
81508;SDS011;70930;52.412;13.554;2023-10-08T16:08:40;2.70;;;1.70;;
81508;SDS011;70930;52.412;13.554;2023-10-08T16:11:26;3.17;;;1.98;;
81508;SDS011;70930;52.412;13.554;2023-10-08T16:14:13;2.53;;;1.67;;
81508;SDS011;70930;52.412;13.554;2023-10-08T16:17:00;3.35;;;1.98;;
81508;SDS011;70930;52.412;13.554;2023-10-08T16:19:49;3.80;;;2.13;;
81508;SDS011;70930;52.412;13.554;2023-10-08T16:22:35;4.20;;;2.75;;
81508;SDS011;70930;52.412;13.554;2023-10-08T16:25:21;4.35;;;2.97;;
81508;SDS011;70930;52.412;13.554;2023-10-08T16:28:06;8.35;;;3.97;;
81508;SDS011;70930;52.412;13.554;2023-10-08T16:30:53;4.63;;;3.10;;
81508;SDS011;70930;52.412;13.554;2023-10-08T16:33:39;4.85;;;2.80;;
81508;SDS011;70930;52.412;13.554;2023-10-08T16:36:24;6.85;;;3.60;;
81508;SDS011;70930;52.412;13.554;2023-10-08T16:39:09;5.47;;;3.72;;
81508;SDS011;70930;52.412;13.554;2023-10-08T16:41:55;7.22;;;3.67;;
81508;SDS011;70930;52.412;13.554;2023-10-08T16:44:42;4.63;;;2.88;;
81508;SDS011;70930;52.412;13.554;2023-10-08T16:47:27;3.95;;;2.80;;
81508;SDS011;70930;52.412;13.554;2023-10-08T16:50:13;5.32;;;3.33;;
81508;SDS011;70930;52.412;13.554;2023-10-08T16:52:59;4.53;;;3.05;;
81508;SDS011;70930;52.412;13.554;2023-10-08T16:55:44;6.90;;;4.28;;
81508;SDS011;70930;52.412;13.554;2023-10-08T16:58:30;11.98;;;7.97;;
81508;SDS011;70930;52.412;13.554;2023-10-08T17:01:16;9.77;;;7.22;;
81508;SDS011;70930;52.412;13.554;2023-10-08T17:04:01;8.02;;;6.22;;
81508;SDS011;70930;52.412;13.554;2023-10-08T17:06:47;10.38;;;7.30;;
81508;SDS011;70930;52.412;13.554;2023-10-08T17:09:32;11.10;;;7.88;;
81508;SDS011;70930;52.412;13.554;2023-10-08T17:12:18;11.05;;;7.03;;
81508;SDS011;70930;52.412;13.554;2023-10-08T17:15:04;9.82;;;5.90;;
81508;SDS011;70930;52.412;13.554;2023-10-08T17:17:50;6.10;;;4.45;;